Time;durP1;ratioP1;P1;durP2;ratioP2;P2;SDS_P1;SDS_P2;PMS_P1;PMS_P2;Temp;Humidity;BMP_temperature;BMP_pressure;BME280_temperature;BME280_humidity;BME280_pressure;Samples;Min_cycle;Max_cycle;Signal;HPM_P1;HPM_P2
2023/07/04 00:01:01;;;;;;;5.20;2.30;;;;;;;;;;5095423;28;20932;-62
2023/07/04 00:03:30;;;;;;;4.57;2.77;;;;;;;;;;5095795;28;20468;-63
2023/07/04 00:05:57;;;;;;;5.57;3.10;;;;;;;;;;5095372;28;20441;-62
2023/07/04 00:08:27;;;;;;;4.60;2.03;;;;;;;;;;5093523;28;20481;-62
2023/07/04 00:10:54;;;;;;;3.50;2.10;;;;;;;;;;5075123;28;20494;-63
2023/07/04 00:13:21;;;;;;;2.80;2.37;;;;;;;;;;5075474;28;20442;-63
2023/07/04 00:15:50;;;;;;;2.63;1.80;;;;;;;;;;5074980;28;20474;-63
2023/07/04 00:18:20;;;;;;;4.93;2.43;;;;;;;;;;5074780;28;20456;-63
2023/07/04 00:20:54;;;;;;;2.37;1.77;;;;;;;;;;5074677;28;20469;-62
2023/07/04 00:23:21;;;;;;;4.47;2.53;;;;;;;;;;5075273;28;20441;-63
2023/07/04 00:25:52;;;;;;;6.30;2.47;;;;;;;;;;5074786;28;20544;-62
2023/07/04 00:28:21;;;;;;;3.10;2.03;;;;;;;;;;5074648;28;20461;-63
2023/07/04 00:30:48;;;;;;;4.70;2.40;;;;;;;;;;5074871;28;20531;-63
2023/07/04 00:33:16;;;;;;;7.33;2.33;;;;;;;;;;5074840;28;20474;-63
2023/07/04 00:35:45;;;;;;;2.37;2.00;;;;;;;;;;5074665;28;20834;-63
2023/07/04 00:38:13;;;;;;;3.53;2.37;;;;;;;;;;5074929;28;20438;-63
2023/07/04 00:40:40;;;;;;;3.47;2.20;;;;;;;;;;5074521;28;20450;-64
2023/07/04 00:43:10;;;;;;;5.43;2.30;;;;;;;;;;5073708;28;20453;-63
2023/07/04 00:45:42;;;;;;;2.80;1.93;;;;;;;;;;5074755;28;20439;-64
2023/07/04 00:48:11;;;;;;;2.60;1.83;;;;;;;;;;5074196;28;20462;-64
2023/07/04 00:50:40;;;;;;;2.90;2.03;;;;;;;;;;5074564;28;20469;-65
2023/07/04 00:53:10;;;;;;;2.30;2.10;;;;;;;;;;5074070;28;20955;-63
2023/07/04 00:55:39;;;;;;;2.80;2.07;;;;;;;;;;5074350;28;20510;-64
2023/07/04 00:58:06;;;;;;;4.60;2.00;;;;;;;;;;5074394;28;20461;-64
2023/07/04 01:00:37;;;;;;;2.20;1.67;;;;;;;;;;5074018;28;20458;-64
2023/07/04 01:03:06;;;;;;;3.90;1.67;;;;;;;;;;5074486;28;20434;-64
2023/07/04 01:05:39;;;;;;;4.67;2.07;;;;;;;;;;5074586;28;20529;-64
2023/07/04 01:08:10;;;;;;;4.43;1.90;;;;;;;;;;5074110;28;20437;-64
2023/07/04 01:10:38;;;;;;;2.40;2.17;;;;;;;;;;5073619;28;20927;-64
2023/07/04 01:13:06;;;;;;;6.83;2.30;;;;;;;;;;5073911;28;20436;-63
2023/07/04 01:15:34;;;;;;;2.57;1.70;;;;;;;;;;5073894;28;20487;-62
2023/07/04 01:18:02;;;;;;;3.57;1.93;;;;;;;;;;5073747;28;20973;-62
2023/07/04 01:20:32;;;;;;;5.30;2.07;;;;;;;;;;5073603;28;20832;-62
2023/07/04 01:23:03;;;;;;;2.47;2.20;;;;;;;;;;5073455;28;20438;-61
2023/07/04 01:25:32;;;;;;;8.30;2.50;;;;;;;;;;5073958;28;20433;-62
2023/07/04 01:28:03;;;;;;;7.37;2.60;;;;;;;;;;5073697;28;20440;-62
2023/07/04 01:30:31;;;;;;;5.07;2.50;;;;;;;;;;5073639;28;20423;-63
2023/07/04 01:32:59;;;;;;;5.90;2.63;;;;;;;;;;5073584;28;20450;-62
2023/07/04 01:35:27;;;;;;;3.20;2.43;;;;;;;;;;5073859;28;20491;-64
2023/07/04 01:37:54;;;;;;;4.03;2.53;;;;;;;;;;5073485;28;20768;-62
2023/07/04 01:40:22;;;;;;;9.90;3.33;;;;;;;;;;5073806;28;20445;-61
2023/07/04 01:42:49;;;;;;;8.20;3.47;;;;;;;;;;5073455;28;20444;-62
2023/07/04 01:45:18;;;;;;;3.30;2.47;;;;;;;;;;5073107;28;20451;-62
2023/07/04 01:47:46;;;;;;;5.90;2.70;;;;;;;;;;5073389;28;20461;-62
2023/07/04 01:50:13;;;;;;;6.63;3.43;;;;;;;;;;5073275;28;20540;-63
2023/07/04 01:52:41;;;;;;;6.67;2.93;;;;;;;;;;5073292;28;20452;-62
2023/07/04 01:55:09;;;;;;;3.57;2.70;;;;;;;;;;5072818;28;20444;-62
2023/07/04 01:57:37;;;;;;;5.87;2.70;;;;;;;;;;5072868;28;20481;-62
2023/07/04 02:00:08;;;;;;;4.53;3.07;;;;;;;;;;5073316;28;20450;-62
2023/07/04 02:02:37;;;;;;;3.00;2.43;;;;;;;;;;5072885;28;20897;-62
2023/07/04 02:05:04;;;;;;;7.43;2.80;;;;;;;;;;5073272;28;20541;-62
2023/07/04 02:07:32;;;;;;;2.50;2.30;;;;;;;;;;5073143;28;20441;-63
2023/07/04 02:10:00;;;;;;;5.07;2.80;;;;;;;;;;5073225;28;20494;-62
2023/07/04 02:12:27;;;;;;;2.77;2.50;;;;;;;;;;5072765;28;21008;-62
2023/07/04 02:14:54;;;;;;;2.70;2.50;;;;;;;;;;5073172;28;20448;-62
2023/07/04 02:17:21;;;;;;;3.80;2.87;;;;;;;;;;5072658;28;20481;-62
2023/07/04 02:19:50;;;;;;;5.80;3.30;;;;;;;;;;5073136;28;20446;-63
2023/07/04 02:22:17;;;;;;;3.70;2.50;;;;;;;;;;5072769;28;20452;-63
2023/07/04 02:24:44;;;;;;;5.53;2.60;;;;;;;;;;5072738;28;20445;-63
2023/07/04 02:27:11;;;;;;;2.83;2.03;;;;;;;;;;5072940;28;20874;-64
2023/07/04 02:29:38;;;;;;;2.97;2.60;;;;;;;;;;5073069;28;20434;-63
2023/07/04 02:32:06;;;;;;;6.47;2.50;;;;;;;;;;5073264;28;20445;-63
2023/07/04 02:34:33;;;;;;;6.77;2.57;;;;;;;;;;5072918;28;20521;-63
2023/07/04 02:37:02;;;;;;;4.27;2.83;;;;;;;;;;5072613;28;20476;-63
2023/07/04 02:39:30;;;;;;;3.77;2.73;;;;;;;;;;5073040;28;20929;-63
2023/07/04 02:41:57;;;;;;;5.17;2.60;;;;;;;;;;5072773;28;20453;-63
2023/07/04 02:44:24;;;;;;;4.70;2.83;;;;;;;;;;5072558;28;20445;-63
2023/07/04 02:46:51;;;;;;;4.13;2.60;;;;;;;;;;5073099;28;20769;-63
2023/07/04 02:49:18;;;;;;;4.70;2.70;;;;;;;;;;5073064;28;20442;-63
2023/07/04 02:51:47;;;;;;;5.80;3.13;;;;;;;;;;5072794;28;20440;-63
2023/07/04 02:54:16;;;;;;;5.20;2.30;;;;;;;;;;5072439;28;20953;-64
2023/07/04 02:56:43;;;;;;;5.07;3.00;;;;;;;;;;5072548;28;20476;-63
2023/07/04 02:59:10;;;;;;;5.67;3.00;;;;;;;;;;5072782;28;20443;-63
2023/07/04 03:01:37;;;;;;;5.30;2.90;;;;;;;;;;5072999;28;20446;-63
2023/07/04 03:04:05;;;;;;;2.80;2.50;;;;;;;;;;5072741;28;20540;-63
2023/07/04 03:06:32;;;;;;;3.37;3.07;;;;;;;;;;5074460;28;20956;-63
2023/07/04 03:08:59;;;;;;;7.63;3.37;;;;;;;;;;5076234;28;20797;-63
2023/07/04 03:11:28;;;;;;;5.97;3.30;;;;;;;;;;5075964;28;20455;-63
2023/07/04 03:13:55;;;;;;;5.10;2.80;;;;;;;;;;5076233;28;20464;-63
2023/07/04 03:16:22;;;;;;;6.90;3.27;;;;;;;;;;5076623;28;20819;-63
2023/07/04 03:18:49;;;;;;;7.63;3.47;;;;;;;;;;5076109;28;20460;-63
2023/07/04 03:21:16;;;;;;;7.17;2.60;;;;;;;;;;5075666;28;20488;-64
2023/07/04 03:23:43;;;;;;;5.53;3.00;;;;;;;;;;5075652;28;20935;-63
2023/07/04 03:26:11;;;;;;;4.73;3.30;;;;;;;;;;5076014;28;20453;-64
2023/07/04 03:28:39;;;;;;;2.97;2.63;;;;;;;;;;5076057;28;20444;-63
2023/07/04 03:31:06;;;;;;;8.70;2.70;;;;;;;;;;5076275;28;20441;-64
2023/07/04 03:33:34;;;;;;;6.30;3.10;;;;;;;;;;5075809;28;20446;-64
2023/07/04 03:36:01;;;;;;;6.07;3.60;;;;;;;;;;5076256;28;20480;-63
2023/07/04 03:38:28;;;;;;;5.20;2.90;;;;;;;;;;5076080;28;20441;-64
2023/07/04 03:40:56;;;;;;;3.63;2.70;;;;;;;;;;5075773;28;20441;-64
2023/07/04 03:43:24;;;;;;;6.60;3.00;;;;;;;;;;5075614;28;20498;-63
2023/07/04 03:45:53;;;;;;;4.13;2.60;;;;;;;;;;5075608;28;20636;-63
2023/07/04 03:48:20;;;;;;;5.90;3.23;;;;;;;;;;5075548;28;20442;-63
2023/07/04 03:50:47;;;;;;;5.53;3.00;;;;;;;;;;5075294;28;20449;-64
2023/07/04 03:53:14;;;;;;;6.00;2.87;;;;;;;;;;5084109;28;20453;-64
2023/07/04 03:55:42;;;;;;;4.50;3.20;;;;;;;;;;5095750;28;20445;-64
2023/07/04 03:58:09;;;;;;;7.40;4.00;;;;;;;;;;5095166;28;20930;-63
2023/07/04 04:00:36;;;;;;;7.37;3.27;;;;;;;;;;5095331;28;20800;-64
2023/07/04 04:03:04;;;;;;;7.07;3.60;;;;;;;;;;5095422;28;20801;-63
2023/07/04 04:05:32;;;;;;;7.17;3.97;;;;;;;;;;5095321;28;20445;-63
2023/07/04 04:07:59;;;;;;;7.20;3.50;;;;;;;;;;5094891;28;20452;-65
2023/07/04 04:10:26;;;;;;;5.33;3.97;;;;;;;;;;5094946;28;20957;-64
2023/07/04 04:12:53;;;;;;;4.80;2.83;;;;;;;;;;5094959;28;20929;-64
2023/07/04 04:15:20;;;;;;;4.73;3.63;;;;;;;;;;5094756;28;20448;-64
2023/07/04 04:17:47;;;;;;;7.53;3.50;;;;;;;;;;5093917;28;20473;-64
2023/07/04 04:20:16;;;;;;;8.47;3.40;;;;;;;;;;5094980;28;20477;-64
2023/07/04 04:22:45;;;;;;;11.13;4.30;;;;;;;;;;5094959;28;20437;-63
2023/07/04 04:25:12;;;;;;;8.00;3.90;;;;;;;;;;5094595;28;20453;-63
2023/07/04 04:27:39;;;;;;;6.43;4.13;;;;;;;;;;5095026;28;20507;-64
2023/07/04 04:30:08;;;;;;;15.00;4.00;;;;;;;;;;5094890;28;20452;-68
2023/07/04 04:32:36;;;;;;;6.33;3.67;;;;;;;;;;5095135;28;20953;-65
2023/07/04 04:35:04;;;;;;;3.90;3.10;;;;;;;;;;5094806;28;20802;-64
2023/07/04 04:37:32;;;;;;;8.13;4.00;;;;;;;;;;5095025;28;20488;-64
2023/07/04 04:40:00;;;;;;;6.67;3.80;;;;;;;;;;5094733;28;20433;-64
2023/07/04 04:42:28;;;;;;;5.53;3.30;;;;;;;;;;5094355;28;20454;-63
2023/07/04 04:44:55;;;;;;;7.13;3.57;;;;;;;;;;5094718;28;20436;-64
2023/07/04 04:47:23;;;;;;;4.77;2.87;;;;;;;;;;5094344;28;20507;-64
2023/07/04 04:49:51;;;;;;;6.20;4.10;;;;;;;;;;5094215;28;20497;-65
2023/07/04 04:52:20;;;;;;;5.63;4.27;;;;;;;;;;5093977;28;20943;-65
2023/07/04 04:54:48;;;;;;;7.63;3.70;;;;;;;;;;5094467;28;20530;-65
2023/07/04 04:57:16;;;;;;;6.53;3.10;;;;;;;;;;5094106;28;20476;-64
2023/07/04 04:59:43;;;;;;;7.37;3.33;;;;;;;;;;5094559;28;20437;-64
2023/07/04 05:02:10;;;;;;;5.83;3.30;;;;;;;;;;5094514;28;20477;-64
2023/07/04 05:04:37;;;;;;;8.53;3.70;;;;;;;;;;5094212;28;20450;-64
2023/07/04 05:07:05;;;;;;;6.33;4.00;;;;;;;;;;5094338;28;20445;-66
2023/07/04 05:09:32;;;;;;;5.93;3.40;;;;;;;;;;5093989;28;20450;-63
2023/07/04 05:12:01;;;;;;;5.67;3.47;;;;;;;;;;5094222;28;20446;-64
2023/07/04 05:14:28;;;;;;;8.30;4.40;;;;;;;;;;5094014;28;20440;-64
2023/07/04 05:16:55;;;;;;;8.57;3.33;;;;;;;;;;5094326;28;20970;-64
2023/07/04 05:19:23;;;;;;;6.73;3.50;;;;;;;;;;5093869;28;20441;-64
2023/07/04 05:21:50;;;;;;;5.77;4.63;;;;;;;;;;5094235;28;20564;-65
2023/07/04 05:24:17;;;;;;;5.93;3.37;;;;;;;;;;5093643;28;20442;-64
2023/07/04 05:26:44;;;;;;;6.67;3.80;;;;;;;;;;5093572;28;20433;-64
2023/07/04 05:29:13;;;;;;;5.93;3.77;;;;;;;;;;5093198;28;20437;-64
2023/07/04 05:31:40;;;;;;;5.27;3.30;;;;;;;;;;5093930;28;20468;-64
2023/07/04 05:34:07;;;;;;;12.87;3.40;;;;;;;;;;5093913;28;20462;-64
2023/07/04 05:36:37;;;;;;;4.20;3.17;;;;;;;;;;5093711;28;20449;-63
2023/07/04 05:39:06;;;;;;;13.07;4.80;;;;;;;;;;5093356;28;20525;-64
2023/07/04 05:41:34;;;;;;;6.57;3.20;;;;;;;;;;5093400;28;20484;-64
2023/07/04 05:44:02;;;;;;;4.80;3.77;;;;;;;;;;5093382;28;20939;-64
2023/07/04 05:46:31;;;;;;;6.30;4.10;;;;;;;;;;5093651;28;20442;-63
2023/07/04 05:48:58;;;;;;;7.57;3.60;;;;;;;;;;5093559;28;20537;-63
2023/07/04 05:51:26;;;;;;;9.00;3.90;;;;;;;;;;5093571;28;20468;-64
2023/07/04 05:53:54;;;;;;;7.93;3.43;;;;;;;;;;5093637;28;20449;-64
2023/07/04 05:56:24;;;;;;;7.33;4.00;;;;;;;;;;5093484;28;20445;-64
2023/07/04 05:58:52;;;;;;;13.20;4.77;;;;;;;;;;5093614;28;20462;-64
2023/07/04 06:01:21;;;;;;;10.10;4.03;;;;;;;;;;5092984;28;20999;-64
2023/07/04 06:03:50;;;;;;;12.53;5.20;;;;;;;;;;5093469;28;20442;-63
2023/07/04 06:06:18;;;;;;;9.90;4.33;;;;;;;;;;5093383;28;20860;-64
2023/07/04 06:08:45;;;;;;;8.50;4.40;;;;;;;;;;5093179;28;20449;-64
2023/07/04 06:11:13;;;;;;;6.60;4.50;;;;;;;;;;5093066;28;20446;-63
2023/07/04 06:13:40;;;;;;;16.03;5.07;;;;;;;;;;5093472;28;20517;-63
2023/07/04 06:16:07;;;;;;;10.67;4.87;;;;;;;;;;5093310;28;20434;-64
2023/07/04 06:18:35;;;;;;;9.60;4.60;;;;;;;;;;5092960;28;20486;-64
2023/07/04 06:21:11;;;;;;;8.40;4.87;;;;;;;;;;5093125;28;20475;-64
2023/07/04 06:23:39;;;;;;;10.90;4.67;;;;;;;;;;5093354;28;20437;-64
2023/07/04 06:26:07;;;;;;;9.67;4.90;;;;;;;;;;5092993;28;21044;-64
2023/07/04 06:28:34;;;;;;;9.20;4.90;;;;;;;;;;5093252;28;20488;-64
2023/07/04 06:31:03;;;;;;;9.70;4.50;;;;;;;;;;5092954;28;20448;-64
2023/07/04 06:33:30;;;;;;;9.20;5.30;;;;;;;;;;5093183;28;20438;-64
2023/07/04 06:35:58;;;;;;;17.03;5.17;;;;;;;;;;5093135;28;20445;-63
2023/07/04 06:38:27;;;;;;;9.40;5.60;;;;;;;;;;5093138;28;20573;-63
2023/07/04 06:40:57;;;;;;;12.17;5.80;;;;;;;;;;5094098;28;20827;-63
2023/07/04 06:43:25;;;;;;;12.83;5.17;;;;;;;;;;5097130;28;20447;-63
2023/07/04 06:45:52;;;;;;;15.60;5.27;;;;;;;;;;5097294;28;20443;-64
2023/07/04 06:48:22;;;;;;;12.30;5.40;;;;;;;;;;5097216;28;20487;-63
2023/07/04 06:50:57;;;;;;;13.83;4.70;;;;;;;;;;5096910;28;20460;-64
2023/07/04 06:53:24;;;;;;;11.97;5.37;;;;;;;;;;5097149;28;20482;-64
2023/07/04 06:55:52;;;;;;;18.73;5.93;;;;;;;;;;5096599;28;20939;-64
2023/07/04 06:58:20;;;;;;;11.40;5.30;;;;;;;;;;5096409;28;20491;-64
2023/07/04 07:00:47;;;;;;;13.50;5.63;;;;;;;;;;5096728;28;20472;-64
2023/07/04 07:03:14;;;;;;;14.40;5.57;;;;;;;;;;5097302;28;20451;-63
2023/07/04 07:05:41;;;;;;;14.50;5.37;;;;;;;;;;5096641;28;20453;-63
2023/07/04 07:08:10;;;;;;;11.40;4.83;;;;;;;;;;5097169;28;20531;-63
2023/07/04 07:10:37;;;;;;;13.57;5.70;;;;;;;;;;5096451;28;20462;-63
2023/07/04 07:13:06;;;;;;;10.00;5.10;;;;;;;;;;5096592;28;20448;-63
2023/07/04 07:15:33;;;;;;;11.93;4.90;;;;;;;;;;5096351;28;20434;-63
2023/07/04 07:18:00;;;;;;;13.30;5.80;;;;;;;;;;5096345;28;20482;-63
2023/07/04 07:20:28;;;;;;;17.73;6.57;;;;;;;;;;5096191;28;20474;-63
2023/07/04 07:22:55;;;;;;;17.07;5.40;;;;;;;;;;5096482;28;20931;-63
2023/07/04 07:25:22;;;;;;;18.10;5.53;;;;;;;;;;5096198;28;20461;-65
2023/07/04 07:27:49;;;;;;;11.80;4.57;;;;;;;;;;5096257;28;20538;-65
2023/07/04 07:30:18;;;;;;;12.57;4.90;;;;;;;;;;5096384;28;20433;-64
2023/07/04 07:32:45;;;;;;;12.80;5.40;;;;;;;;;;5096117;28;20529;-64
2023/07/04 07:35:12;;;;;;;16.23;5.63;;;;;;;;;;5095973;28;20448;-64
2023/07/04 07:37:39;;;;;;;10.33;5.37;;;;;;;;;;5095771;28;20486;-64
2023/07/04 07:40:07;;;;;;;9.07;5.53;;;;;;;;;;5095765;28;20448;-63
2023/07/04 07:42:37;;;;;;;10.90;4.87;;;;;;;;;;5095391;28;20526;-63
2023/07/04 07:45:04;;;;;;;12.90;5.87;;;;;;;;;;5095804;28;20437;-63
2023/07/04 07:47:32;;;;;;;9.03;5.03;;;;;;;;;;5095405;28;20565;-63
2023/07/04 07:50:00;;;;;;;12.40;5.03;;;;;;;;;;5095500;28;20961;-64
2023/07/04 07:52:27;;;;;;;9.60;5.60;;;;;;;;;;5095288;28;20926;-63
2023/07/04 07:54:54;;;;;;;13.57;5.50;;;;;;;;;;5095426;28;20452;-66
2023/07/04 07:57:21;;;;;;;13.63;5.60;;;;;;;;;;5095163;28;20445;-64
2023/07/04 07:59:49;;;;;;;17.57;5.40;;;;;;;;;;5095576;28;20438;-63
2023/07/04 08:02:16;;;;;;;14.80;5.60;;;;;;;;;;5095061;28;20501;-64
2023/07/04 08:04:45;;;;;;;15.30;5.33;;;;;;;;;;5095229;28;20936;-63
2023/07/04 08:07:12;;;;;;;12.07;5.53;;;;;;;;;;5095640;28;20439;-64
2023/07/04 08:09:39;;;;;;;11.77;5.53;;;;;;;;;;5095377;28;20442;-64
2023/07/04 08:12:06;;;;;;;12.23;5.03;;;;;;;;;;5095544;28;20449;-62
2023/07/04 08:14:33;;;;;;;11.90;7.20;;;;;;;;;;5095408;28;20444;-63
2023/07/04 08:17:01;;;;;;;16.07;5.20;;;;;;;;;;5095251;28;20519;-63
2023/07/04 08:19:28;;;;;;;11.03;6.50;;;;;;;;;;5095172;28;20836;-63
2023/07/04 08:21:57;;;;;;;16.10;5.40;;;;;;;;;;5095157;28;20449;-64
2023/07/04 08:24:24;;;;;;;9.80;4.90;;;;;;;;;;5095247;28;20440;-63
2023/07/04 08:26:53;;;;;;;11.90;4.73;;;;;;;;;;5094683;28;20969;-64
2023/07/04 08:29:20;;;;;;;17.97;4.83;;;;;;;;;;5094932;28;20891;-64
2023/07/04 08:31:48;;;;;;;11.67;5.43;;;;;;;;;;5094973;28;20451;-63
2023/07/04 08:34:15;;;;;;;7.50;3.90;;;;;;;;;;5094033;28;20840;-63
2023/07/04 08:36:44;;;;;;;8.60;4.80;;;;;;;;;;5095417;28;20472;-63
2023/07/04 08:39:13;;;;;;;8.80;3.30;;;;;;;;;;5094826;28;20504;-64
2023/07/04 08:41:44;;;;;;;7.80;3.83;;;;;;;;;;5094805;28;20476;-63
2023/07/04 08:44:14;;;;;;;12.47;4.80;;;;;;;;;;5094418;28;20424;-63
2023/07/04 08:46:42;;;;;;;11.27;4.63;;;;;;;;;;5094592;28;20441;-64
2023/07/04 08:49:11;;;;;;;12.63;4.60;;;;;;;;;;5094916;28;20443;-63
2023/07/04 08:51:42;;;;;;;8.30;5.30;;;;;;;;;;5094593;28;20468;-64
2023/07/04 08:54:12;;;;;;;7.33;4.10;;;;;;;;;;5094363;28;20903;-63
2023/07/04 08:56:41;;;;;;;12.70;4.30;;;;;;;;;;5094172;28;20445;-64
2023/07/04 08:59:13;;;;;;;12.50;4.80;;;;;;;;;;5094258;28;20465;-64
2023/07/04 09:01:44;;;;;;;9.50;4.70;;;;;;;;;;5094483;28;20450;-64
2023/07/04 09:04:13;;;;;;;10.53;4.20;;;;;;;;;;5093658;28;20430;-64
2023/07/04 09:06:41;;;;;;;12.63;4.63;;;;;;;;;;5094269;28;20480;-64
2023/07/04 09:09:23;;;;;;;7.83;4.37;;;;;;;;;;5094386;28;20465;-63
2023/07/04 09:11:52;;;;;;;7.77;4.17;;;;;;;;;;5093977;28;20433;-63
2023/07/04 09:14:22;;;;;;;8.50;4.87;;;;;;;;;;5093885;28;20449;-63
2023/07/04 09:16:51;;;;;;;15.47;4.17;;;;;;;;;;5094200;28;20454;-65
2023/07/04 09:19:20;;;;;;;9.23;4.37;;;;;;;;;;5094030;28;20844;-63
2023/07/04 09:21:47;;;;;;;17.60;4.07;;;;;;;;;;5093879;28;20474;-64
2023/07/04 09:24:14;;;;;;;7.40;3.80;;;;;;;;;;5094240;28;20868;-63
2023/07/04 09:26:42;;;;;;;9.13;3.60;;;;;;;;;;5093986;28;20441;-64
2023/07/04 09:29:11;;;;;;;6.60;4.13;;;;;;;;;;5093893;28;20539;-63
2023/07/04 09:31:41;;;;;;;9.80;3.90;;;;;;;;;;5094004;28;20442;-63
2023/07/04 09:34:11;;;;;;;7.77;4.23;;;;;;;;;;5093443;28;20446;-63
2023/07/04 09:36:43;;;;;;;13.90;4.57;;;;;;;;;;5093935;28;20518;-63
2023/07/04 09:39:10;;;;;;;10.60;4.33;;;;;;;;;;5093679;28;20467;-63
2023/07/04 09:41:39;;;;;;;8.07;3.57;;;;;;;;;;5093436;28;20447;-63
2023/07/04 09:44:15;;;;;;;11.03;3.90;;;;;;;;;;5093656;28;20430;-63
2023/07/04 09:46:47;;;;;;;9.83;3.87;;;;;;;;;;5093979;28;20446;-63
2023/07/04 09:49:22;;;;;;;17.87;3.87;;;;;;;;;;5093286;28;20440;-62
2023/07/04 09:51:58;;;;;;;12.47;3.77;;;;;;;;;;5093798;28;20796;-64
2023/07/04 09:54:25;;;;;;;14.03;3.43;;;;;;;;;;5093554;28;20434;-63
2023/07/04 09:56:52;;;;;;;12.27;4.07;;;;;;;;;;5093523;28;20769;-63
2023/07/04 09:59:28;;;;;;;6.40;3.10;;;;;;;;;;5093336;28;20479;-63
2023/07/04 10:01:59;;;;;;;9.23;3.50;;;;;;;;;;5093251;28;20445;-63
2023/07/04 10:04:28;;;;;;;7.13;2.90;;;;;;;;;;5093482;28;20475;-62
2023/07/04 10:06:56;;;;;;;9.10;3.40;;;;;;;;;;5093520;28;20450;-63
2023/07/04 10:09:24;;;;;;;11.30;4.00;;;;;;;;;;5093429;28;20553;-63
2023/07/04 10:11:52;;;;;;;13.00;3.90;;;;;;;;;;5093060;28;20443;-64
2023/07/04 10:14:33;;;;;;;9.67;2.67;;;;;;;;;;5093217;28;20450;-64
2023/07/04 10:17:08;;;;;;;15.13;3.70;;;;;;;;;;5096506;28;20818;-63
2023/07/04 10:19:41;;;;;;;4.67;2.73;;;;;;;;;;5097098;28;20473;-64
2023/07/04 10:22:08;;;;;;;5.20;3.03;;;;;;;;;;5097335;28;20476;-62
2023/07/04 10:24:35;;;;;;;4.90;3.20;;;;;;;;;;5097145;28;20947;-63
2023/07/04 10:27:03;;;;;;;6.07;3.00;;;;;;;;;;5097454;28;20447;-63
2023/07/04 10:29:32;;;;;;;9.00;3.67;;;;;;;;;;5097196;28;20873;-63
2023/07/04 10:32:01;;;;;;;5.03;2.90;;;;;;;;;;5097489;28;20873;-63
2023/07/04 10:34:31;;;;;;;7.97;3.23;;;;;;;;;;5096915;28;20437;-63
2023/07/04 10:37:00;;;;;;;5.10;3.07;;;;;;;;;;5097596;28;20436;-65
2023/07/04 10:39:30;;;;;;;11.17;3.97;;;;;;;;;;5096753;28;20520;-64
2023/07/04 10:42:00;;;;;;;5.73;3.03;;;;;;;;;;5097321;28;20829;-63
2023/07/04 10:44:29;;;;;;;5.20;3.47;;;;;;;;;;5096774;28;20423;-63
2023/07/04 10:46:58;;;;;;;9.93;3.80;;;;;;;;;;5097229;28;20439;-63
2023/07/04 10:49:27;;;;;;;8.50;3.30;;;;;;;;;;5097048;28;20435;-62
2023/07/04 10:52:02;;;;;;;5.40;2.60;;;;;;;;;;5097273;28;20791;-63
2023/07/04 10:54:29;;;;;;;5.00;3.30;;;;;;;;;;5097334;28;20434;-63
2023/07/04 10:57:03;;;;;;;7.30;3.33;;;;;;;;;;5096914;28;20453;-64
2023/07/04 10:59:32;;;;;;;7.83;3.87;;;;;;;;;;5096348;28;20494;-63
2023/07/04 11:02:02;;;;;;;4.90;2.87;;;;;;;;;;5097405;28;20487;-64
2023/07/04 11:04:32;;;;;;;9.70;3.30;;;;;;;;;;5096775;28;20519;-64
2023/07/04 11:07:04;;;;;;;7.00;3.90;;;;;;;;;;5096500;28;20420;-63
2023/07/04 11:09:34;;;;;;;11.07;3.27;;;;;;;;;;5096628;28;20615;-63
2023/07/04 11:12:03;;;;;;;6.83;3.30;;;;;;;;;;5097028;28;20439;-63
2023/07/04 11:14:31;;;;;;;9.90;3.70;;;;;;;;;;5096824;28;20526;-63
2023/07/04 11:17:03;;;;;;;9.20;3.60;;;;;;;;;;5096127;28;20443;-63
2023/07/04 11:19:32;;;;;;;9.90;4.17;;;;;;;;;;5095854;28;20472;-63
2023/07/04 11:22:15;;;;;;;9.03;3.60;;;;;;;;;;5096739;28;20420;-63
2023/07/04 11:24:45;;;;;;;8.03;3.03;;;;;;;;;;5096304;28;20480;-62
2023/07/04 11:27:14;;;;;;;7.90;3.30;;;;;;;;;;5095584;28;20431;-63
2023/07/04 11:29:50;;;;;;;10.83;4.60;;;;;;;;;;5096139;28;20444;-63
2023/07/04 11:32:19;;;;;;;9.30;3.30;;;;;;;;;;5095970;28;20439;-63
2023/07/04 11:34:48;;;;;;;5.90;3.17;;;;;;;;;;5096020;28;20431;-62
2023/07/04 11:37:23;;;;;;;8.83;3.53;;;;;;;;;;5095792;28;20447;-63
2023/07/04 11:39:53;;;;;;;13.60;3.57;;;;;;;;;;5095670;28;20463;-63
2023/07/04 11:42:22;;;;;;;8.20;3.10;;;;;;;;;;5095638;28;20968;-69
2023/07/04 11:44:52;;;;;;;7.60;3.10;;;;;;;;;;5095890;28;20451;-63
2023/07/04 11:47:33;;;;;;;4.77;2.53;;;;;;;;;;5095558;28;20443;-64
2023/07/04 11:50:03;;;;;;;5.57;3.60;;;;;;;;;;5095931;28;20428;-65
2023/07/04 11:52:33;;;;;;;6.80;3.37;;;;;;;;;;5095461;28;20447;-65
2023/07/04 11:55:03;;;;;;;5.30;2.87;;;;;;;;;;5096116;28;20513;-64
2023/07/04 11:57:45;;;;;;;8.27;3.30;;;;;;;;;;5079269;28;20442;-65
2023/07/04 12:00:22;;;;;;;5.03;3.23;;;;;;;;;;5074827;28;20491;-64
2023/07/04 12:02:50;;;;;;;8.70;3.33;;;;;;;;;;5075494;28;20516;-65
2023/07/04 12:05:30;;;;;;;7.20;3.10;;;;;;;;;;5074853;28;20476;-64
2023/07/04 12:08:02;;;;;;;4.83;3.63;;;;;;;;;;5074830;28;20432;-65
2023/07/04 12:10:31;;;;;;;6.87;3.60;;;;;;;;;;5075432;28;20855;-64
2023/07/04 12:13:00;;;;;;;7.37;3.07;;;;;;;;;;5075026;28;20441;-65
2023/07/04 12:15:28;;;;;;;5.50;2.53;;;;;;;;;;5075393;28;20433;-64
2023/07/04 12:17:58;;;;;;;8.27;3.03;;;;;;;;;;5075154;28;20545;-65
2023/07/04 12:20:28;;;;;;;6.43;3.13;;;;;;;;;;5074650;28;20492;-64
2023/07/04 12:22:56;;;;;;;10.90;5.23;;;;;;;;;;5074392;28;20447;-65
2023/07/04 12:25:26;;;;;;;6.03;3.67;;;;;;;;;;5074304;28;21003;-65
2023/07/04 12:27:55;;;;;;;7.80;2.90;;;;;;;;;;5084823;28;20427;-65
2023/07/04 12:30:23;;;;;;;7.13;3.10;;;;;;;;;;5094707;28;20448;-66
2023/07/04 12:32:51;;;;;;;5.57;3.07;;;;;;;;;;5094641;28;20450;-66
2023/07/04 12:35:19;;;;;;;15.53;3.87;;;;;;;;;;5095051;28;20452;-65
2023/07/04 12:37:48;;;;;;;5.80;2.47;;;;;;;;;;5094528;28;20956;-65
2023/07/04 12:40:16;;;;;;;9.20;3.40;;;;;;;;;;5093736;28;20467;-65
2023/07/04 12:42:45;;;;;;;10.00;3.20;;;;;;;;;;5094861;28;20818;-66
2023/07/04 12:45:15;;;;;;;8.03;3.33;;;;;;;;;;5094618;28;20453;-65
2023/07/04 12:47:44;;;;;;;6.13;3.13;;;;;;;;;;5095234;28;20482;-66
2023/07/04 12:50:12;;;;;;;9.43;3.00;;;;;;;;;;5094667;28;20472;-64
2023/07/04 12:52:40;;;;;;;10.33;3.50;;;;;;;;;;5094534;28;20445;-65
2023/07/04 12:55:11;;;;;;;7.20;3.23;;;;;;;;;;5094372;28;20806;-65
2023/07/04 12:57:39;;;;;;;10.03;3.57;;;;;;;;;;5094914;28;20809;-65
2023/07/04 13:00:13;;;;;;;12.63;3.57;;;;;;;;;;5094282;28;20574;-64
2023/07/04 13:02:40;;;;;;;13.60;4.00;;;;;;;;;;5094899;28;20460;-65
2023/07/04 13:05:09;;;;;;;7.87;3.87;;;;;;;;;;5094181;28;20526;-65
2023/07/04 13:07:36;;;;;;;9.00;3.90;;;;;;;;;;5094659;28;20464;-65
2023/07/04 13:10:04;;;;;;;9.07;3.27;;;;;;;;;;5094437;28;20441;-66
2023/07/04 13:12:33;;;;;;;10.60;3.10;;;;;;;;;;5094254;28;20450;-65
2023/07/04 13:15:11;;;;;;;4.87;3.00;;;;;;;;;;5094086;28;20527;-65
2023/07/04 13:17:52;;;;;;;9.83;3.00;;;;;;;;;;5093843;28;20479;-65
2023/07/04 13:20:20;;;;;;;7.13;4.40;;;;;;;;;;5093772;28;20517;-65
2023/07/04 13:22:47;;;;;;;11.37;3.60;;;;;;;;;;5094003;28;20540;-65
2023/07/04 13:25:27;;;;;;;9.97;3.57;;;;;;;;;;5093782;28;20441;-66
2023/07/04 13:28:07;;;;;;;10.47;3.40;;;;;;;;;;5094159;28;20471;-64
2023/07/04 13:30:34;;;;;;;8.67;3.30;;;;;;;;;;5093500;28;20477;-65
2023/07/04 13:33:03;;;;;;;3.90;2.97;;;;;;;;;;5093710;28;20447;-66
2023/07/04 13:35:34;;;;;;;5.10;3.20;;;;;;;;;;5094181;28;20472;-65
2023/07/04 13:38:01;;;;;;;6.00;3.27;;;;;;;;;;5093503;28;20426;-65
2023/07/04 13:40:29;;;;;;;5.83;3.33;;;;;;;;;;5093890;28;20527;-70
2023/07/04 13:43:02;;;;;;;12.77;3.57;;;;;;;;;;5093518;28;20822;-66
2023/07/04 13:45:30;;;;;;;6.30;3.47;;;;;;;;;;5093731;28;20504;-66
2023/07/04 13:47:57;;;;;;;5.27;3.10;;;;;;;;;;5093597;28;20964;-66
2023/07/04 13:50:25;;;;;;;4.63;3.77;;;;;;;;;;5093123;28;20452;-66
2023/07/04 13:52:53;;;;;;;7.50;3.30;;;;;;;;;;5093398;28;20438;-66
2023/07/04 13:55:20;;;;;;;5.03;2.80;;;;;;;;;;5093570;28;20533;-66
2023/07/04 13:57:47;;;;;;;10.23;3.40;;;;;;;;;;5093049;28;20477;-66
2023/07/04 14:00:15;;;;;;;8.03;3.40;;;;;;;;;;5093401;28;20902;-66
2023/07/04 14:02:42;;;;;;;9.87;3.23;;;;;;;;;;5093573;28;20489;-65
2023/07/04 14:05:09;;;;;;;4.20;3.13;;;;;;;;;;5093383;28;20455;-67
2023/07/04 14:07:38;;;;;;;5.77;3.20;;;;;;;;;;5093345;28;20446;-64
2023/07/04 14:10:06;;;;;;;12.97;3.30;;;;;;;;;;5093054;28;20461;-64
2023/07/04 14:12:33;;;;;;;7.67;3.70;;;;;;;;;;5093250;28;20545;-64
2023/07/04 14:15:00;;;;;;;9.63;2.90;;;;;;;;;;5092934;28;20454;-64
2023/07/04 14:17:27;;;;;;;5.63;3.27;;;;;;;;;;5093479;28;20443;-64
2023/07/04 14:19:55;;;;;;;7.50;3.57;;;;;;;;;;5093029;28;20501;-64
2023/07/04 14:22:22;;;;;;;8.23;3.40;;;;;;;;;;5093044;28;20831;-64
2023/07/04 14:24:50;;;;;;;8.03;4.33;;;;;;;;;;5093304;28;20527;-64
2023/07/04 14:27:17;;;;;;;9.13;3.17;;;;;;;;;;5092581;28;20438;-65
2023/07/04 14:29:45;;;;;;;9.83;3.47;;;;;;;;;;5092866;28;20472;-68
2023/07/04 14:32:12;;;;;;;7.23;3.40;;;;;;;;;;5093284;28;20448;-65
2023/07/04 14:34:39;;;;;;;8.57;3.47;;;;;;;;;;5092899;28;20441;-65
2023/07/04 14:37:06;;;;;;;3.63;3.20;;;;;;;;;;5092626;28;20927;-66
2023/07/04 14:39:33;;;;;;;8.80;4.17;;;;;;;;;;5093082;28;21006;-65
2023/07/04 14:42:02;;;;;;;8.83;3.47;;;;;;;;;;5092986;28;20564;-65
2023/07/04 14:44:29;;;;;;;10.63;3.40;;;;;;;;;;5093355;28;20462;-65
2023/07/04 14:46:57;;;;;;;5.00;3.60;;;;;;;;;;5093034;28;20436;-66
2023/07/04 14:49:24;;;;;;;6.30;3.17;;;;;;;;;;5093267;28;20523;-65